sensor_id;sensor_type;location;lat;lon;timestamp;temperature;humidity
74513;DHT22;62992;52.052;8.550;2023-05-07T00:00:23;12.90;99.90
74513;DHT22;62992;52.052;8.550;2023-05-07T00:03:08;12.90;99.90
74513;DHT22;62992;52.052;8.550;2023-05-07T00:05:52;12.80;99.90
74513;DHT22;62992;52.052;8.550;2023-05-07T00:08:36;12.80;99.90
74513;DHT22;62992;52.052;8.550;2023-05-07T00:11:20;12.70;99.90
74513;DHT22;62992;52.052;8.550;2023-05-07T00:14:04;12.80;99.90
74513;DHT22;62992;52.052;8.550;2023-05-07T00:16:49;12.80;99.90
74513;DHT22;62992;52.052;8.550;2023-05-07T00:19:34;12.80;99.90
74513;DHT22;62992;52.052;8.550;2023-05-07T00:22:18;12.80;99.90
74513;DHT22;62992;52.052;8.550;2023-05-07T00:25:02;12.70;99.90
74513;DHT22;62992;52.052;8.550;2023-05-07T00:27:46;12.70;99.90
74513;DHT22;62992;52.052;8.550;2023-05-07T00:30:30;12.70;99.90
74513;DHT22;62992;52.052;8.550;2023-05-07T00:33:14;12.70;99.90
74513;DHT22;62992;52.052;8.550;2023-05-07T00:35:59;12.60;99.90
74513;DHT22;62992;52.052;8.550;2023-05-07T00:38:44;12.60;99.90
74513;DHT22;62992;52.052;8.550;2023-05-07T00:41:29;12.50;99.90
74513;DHT22;62992;52.052;8.550;2023-05-07T00:44:17;12.50;99.90
74513;DHT22;62992;52.052;8.550;2023-05-07T00:47:03;12.50;99.90
74513;DHT22;62992;52.052;8.550;2023-05-07T00:49:48;12.50;99.90
74513;DHT22;62992;52.052;8.550;2023-05-07T00:52:33;12.50;99.90
74513;DHT22;62992;52.052;8.550;2023-05-07T00:55:18;12.50;99.90
74513;DHT22;62992;52.052;8.550;2023-05-07T00:58:02;12.50;99.90
74513;DHT22;62992;52.052;8.550;2023-05-07T01:00:46;12.50;99.90
74513;DHT22;62992;52.052;8.550;2023-05-07T01:03:30;12.40;99.90
74513;DHT22;62992;52.052;8.550;2023-05-07T01:06:15;12.40;99.90
74513;DHT22;62992;52.052;8.550;2023-05-07T01:09:00;12.40;99.90
74513;DHT22;62992;52.052;8.550;2023-05-07T01:11:45;12.30;99.90
74513;DHT22;62992;52.052;8.550;2023-05-07T01:14:31;12.30;99.90
74513;DHT22;62992;52.052;8.550;2023-05-07T01:17:17;12.30;99.90
74513;DHT22;62992;52.052;8.550;2023-05-07T01:20:01;12.30;99.90
74513;DHT22;62992;52.052;8.550;2023-05-07T01:22:46;12.30;99.90
74513;DHT22;62992;52.052;8.550;2023-05-07T01:25:31;12.30;99.90
74513;DHT22;62992;52.052;8.550;2023-05-07T01:28:15;12.30;99.90
74513;DHT22;62992;52.052;8.550;2023-05-07T01:31:03;12.30;99.90
74513;DHT22;62992;52.052;8.550;2023-05-07T01:33:48;12.20;99.90
74513;DHT22;62992;52.052;8.550;2023-05-07T01:36:34;12.20;99.90
74513;DHT22;62992;52.052;8.550;2023-05-07T01:39:19;12.20;99.90
74513;DHT22;62992;52.052;8.550;2023-05-07T01:42:03;12.20;99.90
74513;DHT22;62992;52.052;8.550;2023-05-07T01:44:48;12.20;99.90
74513;DHT22;62992;52.052;8.550;2023-05-07T01:47:32;12.30;99.90
74513;DHT22;62992;52.052;8.550;2023-05-07T01:50:18;12.10;99.90
74513;DHT22;62992;52.052;8.550;2023-05-07T01:53:03;12.10;99.90
74513;DHT22;62992;52.052;8.550;2023-05-07T01:55:47;12.10;99.90
74513;DHT22;62992;52.052;8.550;2023-05-07T01:58:31;12.10;99.90
74513;DHT22;62992;52.052;8.550;2023-05-07T02:01:15;12.10;99.90
74513;DHT22;62992;52.052;8.550;2023-05-07T02:03:59;12.10;99.90
74513;DHT22;62992;52.052;8.550;2023-05-07T02:06:43;12.10;99.90
74513;DHT22;62992;52.052;8.550;2023-05-07T02:09:27;12.00;99.90
74513;DHT22;62992;52.052;8.550;2023-05-07T02:12:12;12.00;99.90
74513;DHT22;62992;52.052;8.550;2023-05-07T02:14:56;12.00;99.90
74513;DHT22;62992;52.052;8.550;2023-05-07T02:18:07;12.00;99.90
74513;DHT22;62992;52.052;8.550;2023-05-07T02:20:52;12.00;99.90
74513;DHT22;62992;52.052;8.550;2023-05-07T02:23:37;12.00;99.90
74513;DHT22;62992;52.052;8.550;2023-05-07T02:26:21;12.00;99.90
74513;DHT22;62992;52.052;8.550;2023-05-07T02:29:05;12.00;99.90
74513;DHT22;62992;52.052;8.550;2023-05-07T02:31:49;12.00;99.90
74513;DHT22;62992;52.052;8.550;2023-05-07T02:34:34;12.00;99.90
74513;DHT22;62992;52.052;8.550;2023-05-07T02:37:18;12.00;99.90
74513;DHT22;62992;52.052;8.550;2023-05-07T02:40:03;11.90;99.90
74513;DHT22;62992;52.052;8.550;2023-05-07T02:42:48;12.00;99.90
74513;DHT22;62992;52.052;8.550;2023-05-07T02:45:33;12.00;99.90
74513;DHT22;62992;52.052;8.550;2023-05-07T02:48:17;11.90;99.90
74513;DHT22;62992;52.052;8.550;2023-05-07T02:51:02;11.90;99.90
74513;DHT22;62992;52.052;8.550;2023-05-07T02:53:46;11.90;99.90
74513;DHT22;62992;52.052;8.550;2023-05-07T02:56:31;11.90;99.90
74513;DHT22;62992;52.052;8.550;2023-05-07T02:59:15;11.80;99.90
74513;DHT22;62992;52.052;8.550;2023-05-07T03:01:59;11.80;99.90
74513;DHT22;62992;52.052;8.550;2023-05-07T03:04:43;11.80;99.90
74513;DHT22;62992;52.052;8.550;2023-05-07T03:07:27;11.80;99.90
74513;DHT22;62992;52.052;8.550;2023-05-07T03:10:11;11.80;99.90
74513;DHT22;62992;52.052;8.550;2023-05-07T03:12:55;11.80;99.90
74513;DHT22;62992;52.052;8.550;2023-05-07T03:15:39;11.70;99.90
74513;DHT22;62992;52.052;8.550;2023-05-07T03:18:24;11.70;99.90
74513;DHT22;62992;52.052;8.550;2023-05-07T03:21:08;11.70;99.90
74513;DHT22;62992;52.052;8.550;2023-05-07T03:23:52;11.80;99.90
74513;DHT22;62992;52.052;8.550;2023-05-07T03:26:37;11.70;99.90
74513;DHT22;62992;52.052;8.550;2023-05-07T03:29:21;11.60;99.90
74513;DHT22;62992;52.052;8.550;2023-05-07T03:32:05;11.60;99.90
74513;DHT22;62992;52.052;8.550;2023-05-07T03:34:49;11.60;99.90
74513;DHT22;62992;52.052;8.550;2023-05-07T03:37:33;11.60;99.90
74513;DHT22;62992;52.052;8.550;2023-05-07T03:40:17;11.60;99.90
74513;DHT22;62992;52.052;8.550;2023-05-07T03:43:01;11.60;99.90
74513;DHT22;62992;52.052;8.550;2023-05-07T03:45:45;11.50;99.90
74513;DHT22;62992;52.052;8.550;2023-05-07T03:48:29;11.50;99.90
74513;DHT22;62992;52.052;8.550;2023-05-07T03:51:13;11.50;99.90
74513;DHT22;62992;52.052;8.550;2023-05-07T03:53:57;11.50;99.90
74513;DHT22;62992;52.052;8.550;2023-05-07T03:56:41;11.50;99.90
74513;DHT22;62992;52.052;8.550;2023-05-07T03:59:25;11.50;99.90
74513;DHT22;62992;52.052;8.550;2023-05-07T04:02:09;11.40;99.90
74513;DHT22;62992;52.052;8.550;2023-05-07T04:04:54;11.50;99.90
74513;DHT22;62992;52.052;8.550;2023-05-07T04:07:38;11.50;99.90
74513;DHT22;62992;52.052;8.550;2023-05-07T04:10:22;11.50;99.90
74513;DHT22;62992;52.052;8.550;2023-05-07T04:13:06;11.50;99.90
74513;DHT22;62992;52.052;8.550;2023-05-07T04:15:51;11.40;99.90
74513;DHT22;62992;52.052;8.550;2023-05-07T04:18:36;11.40;99.90
74513;DHT22;62992;52.052;8.550;2023-05-07T04:21:20;11.40;99.90
74513;DHT22;62992;52.052;8.550;2023-05-07T04:24:05;11.40;99.90
74513;DHT22;62992;52.052;8.550;2023-05-07T04:26:50;11.40;99.90
74513;DHT22;62992;52.052;8.550;2023-05-07T04:29:35;11.50;99.90
74513;DHT22;62992;52.052;8.550;2023-05-07T04:32:19;11.50;99.90
74513;DHT22;62992;52.052;8.550;2023-05-07T04:35:04;11.50;99.90
74513;DHT22;62992;52.052;8.550;2023-05-07T04:37:48;11.50;99.90
74513;DHT22;62992;52.052;8.550;2023-05-07T04:40:32;11.40;99.90
74513;DHT22;62992;52.052;8.550;2023-05-07T04:43:16;11.50;99.90
74513;DHT22;62992;52.052;8.550;2023-05-07T04:46:01;11.50;99.90
74513;DHT22;62992;52.052;8.550;2023-05-07T04:48:45;11.50;99.90
74513;DHT22;62992;52.052;8.550;2023-05-07T04:51:29;11.40;99.90
74513;DHT22;62992;52.052;8.550;2023-05-07T04:54:13;11.30;99.90
74513;DHT22;62992;52.052;8.550;2023-05-07T04:56:57;11.30;99.90
74513;DHT22;62992;52.052;8.550;2023-05-07T04:59:41;11.30;99.90
74513;DHT22;62992;52.052;8.550;2023-05-07T05:02:25;11.30;99.90
74513;DHT22;62992;52.052;8.550;2023-05-07T05:05:09;11.40;99.90
74513;DHT22;62992;52.052;8.550;2023-05-07T05:07:53;11.40;99.90
74513;DHT22;62992;52.052;8.550;2023-05-07T05:10:37;11.40;99.90
74513;DHT22;62992;52.052;8.550;2023-05-07T05:13:21;11.40;99.90
74513;DHT22;62992;52.052;8.550;2023-05-07T05:16:05;11.40;99.90
74513;DHT22;62992;52.052;8.550;2023-05-07T05:18:49;11.50;99.90
74513;DHT22;62992;52.052;8.550;2023-05-07T05:21:35;11.50;99.90
74513;DHT22;62992;52.052;8.550;2023-05-07T05:24:20;11.50;99.90
74513;DHT22;62992;52.052;8.550;2023-05-07T05:27:04;11.50;99.90
74513;DHT22;62992;52.052;8.550;2023-05-07T05:29:49;11.50;99.90
74513;DHT22;62992;52.052;8.550;2023-05-07T05:32:33;11.50;99.90
74513;DHT22;62992;52.052;8.550;2023-05-07T05:35:17;11.60;99.90
74513;DHT22;62992;52.052;8.550;2023-05-07T05:38:01;11.60;99.90
74513;DHT22;62992;52.052;8.550;2023-05-07T05:40:46;11.60;99.90
74513;DHT22;62992;52.052;8.550;2023-05-07T05:43:30;11.70;99.90
74513;DHT22;62992;52.052;8.550;2023-05-07T05:46:14;11.70;99.90
74513;DHT22;62992;52.052;8.550;2023-05-07T05:48:58;11.80;99.90
74513;DHT22;62992;52.052;8.550;2023-05-07T05:51:43;11.80;99.90
74513;DHT22;62992;52.052;8.550;2023-05-07T05:54:27;11.90;99.90
74513;DHT22;62992;52.052;8.550;2023-05-07T05:57:11;12.10;99.90
74513;DHT22;62992;52.052;8.550;2023-05-07T05:59:56;12.10;99.90
74513;DHT22;62992;52.052;8.550;2023-05-07T06:02:40;12.20;99.90
74513;DHT22;62992;52.052;8.550;2023-05-07T06:05:24;12.20;99.90
74513;DHT22;62992;52.052;8.550;2023-05-07T06:08:08;12.20;99.90
74513;DHT22;62992;52.052;8.550;2023-05-07T06:10:52;12.30;99.90
74513;DHT22;62992;52.052;8.550;2023-05-07T06:13:36;12.40;99.90
74513;DHT22;62992;52.052;8.550;2023-05-07T06:16:21;12.40;99.90
74513;DHT22;62992;52.052;8.550;2023-05-07T06:19:05;12.50;99.90
74513;DHT22;62992;52.052;8.550;2023-05-07T06:21:49;12.60;99.90
74513;DHT22;62992;52.052;8.550;2023-05-07T06:24:34;12.60;99.90
74513;DHT22;62992;52.052;8.550;2023-05-07T06:27:18;12.50;99.90
74513;DHT22;62992;52.052;8.550;2023-05-07T06:30:02;12.50;99.90
74513;DHT22;62992;52.052;8.550;2023-05-07T06:32:46;12.50;99.90
74513;DHT22;62992;52.052;8.550;2023-05-07T06:35:30;12.70;99.90
74513;DHT22;62992;52.052;8.550;2023-05-07T06:38:14;12.70;99.90
74513;DHT22;62992;52.052;8.550;2023-05-07T06:40:59;12.70;99.90
74513;DHT22;62992;52.052;8.550;2023-05-07T06:43:43;12.70;99.90
74513;DHT22;62992;52.052;8.550;2023-05-07T06:46:27;12.90;99.90
74513;DHT22;62992;52.052;8.550;2023-05-07T06:49:12;12.90;99.90
74513;DHT22;62992;52.052;8.550;2023-05-07T06:51:56;12.90;99.90
74513;DHT22;62992;52.052;8.550;2023-05-07T06:54:40;13.00;99.90
74513;DHT22;62992;52.052;8.550;2023-05-07T06:57:24;13.10;99.90
74513;DHT22;62992;52.052;8.550;2023-05-07T07:00:08;13.10;99.90
74513;DHT22;62992;52.052;8.550;2023-05-07T07:02:54;13.10;99.90
74513;DHT22;62992;52.052;8.550;2023-05-07T07:05:42;13.30;99.90
74513;DHT22;62992;52.052;8.550;2023-05-07T07:08:26;13.40;99.90
74513;DHT22;62992;52.052;8.550;2023-05-07T07:11:10;13.50;99.90
74513;DHT22;62992;52.052;8.550;2023-05-07T07:13:54;13.50;99.90
74513;DHT22;62992;52.052;8.550;2023-05-07T07:16:38;13.50;99.90
74513;DHT22;62992;52.052;8.550;2023-05-07T07:19:23;13.90;99.90
74513;DHT22;62992;52.052;8.550;2023-05-07T07:22:07;14.70;99.90
74513;DHT22;62992;52.052;8.550;2023-05-07T07:24:51;15.60;99.90
74513;DHT22;62992;52.052;8.550;2023-05-07T07:27:35;15.50;99.90
74513;DHT22;62992;52.052;8.550;2023-05-07T07:30:20;15.20;99.90
74513;DHT22;62992;52.052;8.550;2023-05-07T07:33:04;15.00;99.90
74513;DHT22;62992;52.052;8.550;2023-05-07T07:35:48;14.70;99.90
74513;DHT22;62992;52.052;8.550;2023-05-07T07:38:33;14.60;99.90
74513;DHT22;62992;52.052;8.550;2023-05-07T07:41:17;14.40;99.90
74513;DHT22;62992;52.052;8.550;2023-05-07T07:44:02;13.80;99.90
74513;DHT22;62992;52.052;8.550;2023-05-07T07:46:47;13.60;99.90
74513;DHT22;62992;52.052;8.550;2023-05-07T07:49:31;13.50;99.90
74513;DHT22;62992;52.052;8.550;2023-05-07T07:52:15;13.50;99.90
74513;DHT22;62992;52.052;8.550;2023-05-07T07:55:00;13.60;99.90
74513;DHT22;62992;52.052;8.550;2023-05-07T07:57:44;13.90;99.90
74513;DHT22;62992;52.052;8.550;2023-05-07T08:00:28;14.00;99.90
74513;DHT22;62992;52.052;8.550;2023-05-07T08:03:12;14.00;99.90
74513;DHT22;62992;52.052;8.550;2023-05-07T08:05:56;14.20;99.90
74513;DHT22;62992;52.052;8.550;2023-05-07T08:08:40;14.40;99.90
74513;DHT22;62992;52.052;8.550;2023-05-07T08:11:25;14.60;99.90
74513;DHT22;62992;52.052;8.550;2023-05-07T08:14:09;14.60;99.90
74513;DHT22;62992;52.052;8.550;2023-05-07T08:16:53;15.00;99.90
74513;DHT22;62992;52.052;8.550;2023-05-07T08:19:37;14.60;99.90
74513;DHT22;62992;52.052;8.550;2023-05-07T08:22:21;14.70;99.90
74513;DHT22;62992;52.052;8.550;2023-05-07T08:25:06;14.80;99.90
74513;DHT22;62992;52.052;8.550;2023-05-07T08:27:50;15.50;99.90
74513;DHT22;62992;52.052;8.550;2023-05-07T08:30:35;15.80;99.90
74513;DHT22;62992;52.052;8.550;2023-05-07T08:33:19;16.20;99.90
74513;DHT22;62992;52.052;8.550;2023-05-07T08:36:04;16.90;99.90
74513;DHT22;62992;52.052;8.550;2023-05-07T08:38:48;17.30;99.90
74513;DHT22;62992;52.052;8.550;2023-05-07T08:41:34;16.90;99.90
74513;DHT22;62992;52.052;8.550;2023-05-07T08:44:18;17.30;99.90
74513;DHT22;62992;52.052;8.550;2023-05-07T08:47:06;17.20;99.90
74513;DHT22;62992;52.052;8.550;2023-05-07T08:49:50;16.20;99.90
74513;DHT22;62992;52.052;8.550;2023-05-07T08:52:34;16.00;99.90
74513;DHT22;62992;52.052;8.550;2023-05-07T08:55:19;16.20;99.90
74513;DHT22;62992;52.052;8.550;2023-05-07T08:58:03;15.70;99.90
74513;DHT22;62992;52.052;8.550;2023-05-07T09:00:48;15.30;99.90
74513;DHT22;62992;52.052;8.550;2023-05-07T09:03:32;15.30;99.90
74513;DHT22;62992;52.052;8.550;2023-05-07T09:06:16;15.20;99.90
74513;DHT22;62992;52.052;8.550;2023-05-07T09:09:01;15.60;99.90
74513;DHT22;62992;52.052;8.550;2023-05-07T09:11:46;16.00;99.90
74513;DHT22;62992;52.052;8.550;2023-05-07T09:14:31;16.00;99.90
74513;DHT22;62992;52.052;8.550;2023-05-07T09:17:18;16.10;99.90
74513;DHT22;62992;52.052;8.550;2023-05-07T09:20:03;16.20;99.90
74513;DHT22;62992;52.052;8.550;2023-05-07T09:22:48;16.00;99.90
74513;DHT22;62992;52.052;8.550;2023-05-07T09:25:33;16.40;99.90
74513;DHT22;62992;52.052;8.550;2023-05-07T09:28:17;15.80;99.90
74513;DHT22;62992;52.052;8.550;2023-05-07T09:31:01;16.10;99.90
74513;DHT22;62992;52.052;8.550;2023-05-07T09:33:46;16.20;99.90
74513;DHT22;62992;52.052;8.550;2023-05-07T09:36:29;15.30;99.90
74513;DHT22;62992;52.052;8.550;2023-05-07T09:39:15;15.80;99.90
74513;DHT22;62992;52.052;8.550;2023-05-07T09:42:00;16.00;99.90
74513;DHT22;62992;52.052;8.550;2023-05-07T09:44:46;16.00;99.90
74513;DHT22;62992;52.052;8.550;2023-05-07T09:47:31;16.30;99.90
74513;DHT22;62992;52.052;8.550;2023-05-07T09:50:16;16.10;99.90
74513;DHT22;62992;52.052;8.550;2023-05-07T09:53:00;16.10;99.90
74513;DHT22;62992;52.052;8.550;2023-05-07T09:55:45;15.80;99.90
74513;DHT22;62992;52.052;8.550;2023-05-07T09:58:29;16.00;99.90
74513;DHT22;62992;52.052;8.550;2023-05-07T10:01:15;16.60;99.90
74513;DHT22;62992;52.052;8.550;2023-05-07T10:04:01;16.70;99.90
74513;DHT22;62992;52.052;8.550;2023-05-07T10:06:46;16.50;99.90
74513;DHT22;62992;52.052;8.550;2023-05-07T10:09:30;16.70;99.90
74513;DHT22;62992;52.052;8.550;2023-05-07T10:12:15;16.70;99.90
74513;DHT22;62992;52.052;8.550;2023-05-07T10:15:00;16.30;99.90
74513;DHT22;62992;52.052;8.550;2023-05-07T10:17:44;16.40;99.90
74513;DHT22;62992;52.052;8.550;2023-05-07T10:20:28;17.00;99.90
74513;DHT22;62992;52.052;8.550;2023-05-07T10:23:14;17.30;99.90
74513;DHT22;62992;52.052;8.550;2023-05-07T10:26:02;18.00;99.90
74513;DHT22;62992;52.052;8.550;2023-05-07T10:28:48;17.50;99.90
74513;DHT22;62992;52.052;8.550;2023-05-07T10:34:37;18.00;99.90
74513;DHT22;62992;52.052;8.550;2023-05-07T10:37:22;18.40;99.90
74513;DHT22;62992;52.052;8.550;2023-05-07T10:40:08;18.30;99.90
74513;DHT22;62992;52.052;8.550;2023-05-07T10:42:57;18.00;99.90
74513;DHT22;62992;52.052;8.550;2023-05-07T10:45:41;18.20;99.90
74513;DHT22;62992;52.052;8.550;2023-05-07T10:48:25;18.40;99.90
74513;DHT22;62992;52.052;8.550;2023-05-07T10:51:17;17.90;99.90
74513;DHT22;62992;52.052;8.550;2023-05-07T10:56:55;18.80;99.90
74513;DHT22;62992;52.052;8.550;2023-05-07T10:59:40;19.00;99.90
74513;DHT22;62992;52.052;8.550;2023-05-07T11:05:31;18.50;99.90
74513;DHT22;62992;52.052;8.550;2023-05-07T11:08:15;18.50;99.90
74513;DHT22;62992;52.052;8.550;2023-05-07T11:10:59;18.50;99.90
74513;DHT22;62992;52.052;8.550;2023-05-07T11:13:47;18.70;99.90
74513;DHT22;62992;52.052;8.550;2023-05-07T11:16:31;18.00;99.90
74513;DHT22;62992;52.052;8.550;2023-05-07T11:19:17;18.10;99.90
74513;DHT22;62992;52.052;8.550;2023-05-07T11:22:01;18.20;99.90
74513;DHT22;62992;52.052;8.550;2023-05-07T11:24:45;18.20;99.90
74513;DHT22;62992;52.052;8.550;2023-05-07T11:27:30;18.10;99.90
74513;DHT22;62992;52.052;8.550;2023-05-07T11:30:17;18.70;99.90
74513;DHT22;62992;52.052;8.550;2023-05-07T11:33:04;18.80;99.90
74513;DHT22;62992;52.052;8.550;2023-05-07T11:35:49;18.10;99.90
74513;DHT22;62992;52.052;8.550;2023-05-07T11:38:35;18.10;99.90
74513;DHT22;62992;52.052;8.550;2023-05-07T11:41:19;18.70;99.90
74513;DHT22;62992;52.052;8.550;2023-05-07T11:44:04;18.70;99.90
74513;DHT22;62992;52.052;8.550;2023-05-07T11:46:48;18.80;99.90
74513;DHT22;62992;52.052;8.550;2023-05-07T11:49:32;18.80;99.90
74513;DHT22;62992;52.052;8.550;2023-05-07T11:52:18;19.30;99.90
74513;DHT22;62992;52.052;8.550;2023-05-07T11:55:02;19.20;99.90
74513;DHT22;62992;52.052;8.550;2023-05-07T11:57:48;19.30;99.90
74513;DHT22;62992;52.052;8.550;2023-05-07T12:00:32;19.30;99.90
74513;DHT22;62992;52.052;8.550;2023-05-07T12:03:16;19.00;99.90
74513;DHT22;62992;52.052;8.550;2023-05-07T12:06:01;18.90;99.90
74513;DHT22;62992;52.052;8.550;2023-05-07T12:08:46;18.90;99.90
74513;DHT22;62992;52.052;8.550;2023-05-07T12:11:30;19.50;99.90
74513;DHT22;62992;52.052;8.550;2023-05-07T12:14:14;19.30;99.90
74513;DHT22;62992;52.052;8.550;2023-05-07T12:17:01;18.80;99.90
74513;DHT22;62992;52.052;8.550;2023-05-07T12:19:46;18.60;99.90
74513;DHT22;62992;52.052;8.550;2023-05-07T12:22:31;18.60;99.90
74513;DHT22;62992;52.052;8.550;2023-05-07T12:25:18;18.00;99.90
74513;DHT22;62992;52.052;8.550;2023-05-07T12:28:03;18.00;99.90
74513;DHT22;62992;52.052;8.550;2023-05-07T12:30:48;17.80;99.90
74513;DHT22;62992;52.052;8.550;2023-05-07T12:33:34;18.20;99.90
74513;DHT22;62992;52.052;8.550;2023-05-07T12:36:19;18.50;99.90
74513;DHT22;62992;52.052;8.550;2023-05-07T12:39:05;18.20;99.90
74513;DHT22;62992;52.052;8.550;2023-05-07T12:41:53;18.10;99.90
74513;DHT22;62992;52.052;8.550;2023-05-07T12:44:39;18.00;99.90
74513;DHT22;62992;52.052;8.550;2023-05-07T12:47:23;17.60;99.90
74513;DHT22;62992;52.052;8.550;2023-05-07T12:50:07;17.70;99.90
74513;DHT22;62992;52.052;8.550;2023-05-07T12:52:51;18.10;99.90
74513;DHT22;62992;52.052;8.550;2023-05-07T12:55:42;17.80;99.90
74513;DHT22;62992;52.052;8.550;2023-05-07T12:58:30;17.80;99.90
74513;DHT22;62992;52.052;8.550;2023-05-07T13:01:15;18.00;99.90
74513;DHT22;62992;52.052;8.550;2023-05-07T13:04:02;18.10;99.90
74513;DHT22;62992;52.052;8.550;2023-05-07T13:06:47;18.20;99.90
74513;DHT22;62992;52.052;8.550;2023-05-07T13:09:31;17.80;99.90
74513;DHT22;62992;52.052;8.550;2023-05-07T13:12:15;17.70;99.90
74513;DHT22;62992;52.052;8.550;2023-05-07T13:14:59;18.30;99.90
74513;DHT22;62992;52.052;8.550;2023-05-07T13:17:44;18.40;99.90
74513;DHT22;62992;52.052;8.550;2023-05-07T13:20:28;18.00;99.90
74513;DHT22;62992;52.052;8.550;2023-05-07T13:23:12;17.70;99.90
74513;DHT22;62992;52.052;8.550;2023-05-07T13:25:57;18.00;99.90
74513;DHT22;62992;52.052;8.550;2023-05-07T13:28:41;18.40;99.90
74513;DHT22;62992;52.052;8.550;2023-05-07T13:31:25;18.10;99.90
74513;DHT22;62992;52.052;8.550;2023-05-07T13:34:10;18.10;99.90
74513;DHT22;62992;52.052;8.550;2023-05-07T13:36:54;18.20;99.90
74513;DHT22;62992;52.052;8.550;2023-05-07T13:39:39;18.30;99.90
74513;DHT22;62992;52.052;8.550;2023-05-07T13:42:24;18.30;99.90
74513;DHT22;62992;52.052;8.550;2023-05-07T13:45:08;18.10;99.90
74513;DHT22;62992;52.052;8.550;2023-05-07T13:47:53;18.00;99.90
74513;DHT22;62992;52.052;8.550;2023-05-07T13:50:37;18.00;99.90
74513;DHT22;62992;52.052;8.550;2023-05-07T13:53:21;17.80;99.90
74513;DHT22;62992;52.052;8.550;2023-05-07T13:56:05;17.50;99.90
74513;DHT22;62992;52.052;8.550;2023-05-07T13:58:49;17.50;99.90
74513;DHT22;62992;52.052;8.550;2023-05-07T14:01:34;17.40;99.90
74513;DHT22;62992;52.052;8.550;2023-05-07T14:04:18;17.50;99.90
74513;DHT22;62992;52.052;8.550;2023-05-07T14:07:02;17.30;99.90
74513;DHT22;62992;52.052;8.550;2023-05-07T14:09:46;17.30;99.90
74513;DHT22;62992;52.052;8.550;2023-05-07T14:12:31;17.30;99.90
74513;DHT22;62992;52.052;8.550;2023-05-07T14:15:15;17.20;99.90
74513;DHT22;62992;52.052;8.550;2023-05-07T14:17:59;17.50;99.90
74513;DHT22;62992;52.052;8.550;2023-05-07T14:20:43;17.70;99.90
74513;DHT22;62992;52.052;8.550;2023-05-07T14:23:29;17.40;99.90
74513;DHT22;62992;52.052;8.550;2023-05-07T14:26:14;17.50;99.90
74513;DHT22;62992;52.052;8.550;2023-05-07T14:28:58;17.40;99.90
74513;DHT22;62992;52.052;8.550;2023-05-07T14:31:42;17.30;99.90
74513;DHT22;62992;52.052;8.550;2023-05-07T14:34:26;17.30;99.90
74513;DHT22;62992;52.052;8.550;2023-05-07T14:37:11;17.50;99.90
74513;DHT22;62992;52.052;8.550;2023-05-07T14:39:55;17.40;99.90
74513;DHT22;62992;52.052;8.550;2023-05-07T14:42:39;17.50;99.90
74513;DHT22;62992;52.052;8.550;2023-05-07T14:45:23;17.80;99.90
74513;DHT22;62992;52.052;8.550;2023-05-07T14:48:07;17.80;99.90
74513;DHT22;62992;52.052;8.550;2023-05-07T14:50:53;17.40;99.90
74513;DHT22;62992;52.052;8.550;2023-05-07T14:53:37;17.40;99.90
74513;DHT22;62992;52.052;8.550;2023-05-07T14:56:21;17.30;99.90
74513;DHT22;62992;52.052;8.550;2023-05-07T14:59:05;17.40;99.90
74513;DHT22;62992;52.052;8.550;2023-05-07T15:01:49;17.20;99.90
74513;DHT22;62992;52.052;8.550;2023-05-07T15:04:34;17.10;99.90
74513;DHT22;62992;52.052;8.550;2023-05-07T15:07:18;17.20;99.90
74513;DHT22;62992;52.052;8.550;2023-05-07T15:10:02;17.20;99.90
74513;DHT22;62992;52.052;8.550;2023-05-07T15:12:46;17.00;99.90
74513;DHT22;62992;52.052;8.550;2023-05-07T15:15:30;17.10;99.90
74513;DHT22;62992;52.052;8.550;2023-05-07T15:18:15;17.10;99.90
74513;DHT22;62992;52.052;8.550;2023-05-07T15:20:59;17.00;99.90
74513;DHT22;62992;52.052;8.550;2023-05-07T15:23:43;17.00;99.90
74513;DHT22;62992;52.052;8.550;2023-05-07T15:26:28;17.00;99.90
74513;DHT22;62992;52.052;8.550;2023-05-07T15:29:13;17.00;99.90
74513;DHT22;62992;52.052;8.550;2023-05-07T15:31:57;16.90;99.90
74513;DHT22;62992;52.052;8.550;2023-05-07T15:34:41;17.00;99.90
74513;DHT22;62992;52.052;8.550;2023-05-07T15:37:25;16.90;99.90
74513;DHT22;62992;52.052;8.550;2023-05-07T15:40:10;16.80;99.90
74513;DHT22;62992;52.052;8.550;2023-05-07T15:42:54;16.80;99.90
74513;DHT22;62992;52.052;8.550;2023-05-07T15:45:39;16.90;99.90
74513;DHT22;62992;52.052;8.550;2023-05-07T15:48:24;16.80;99.90
74513;DHT22;62992;52.052;8.550;2023-05-07T15:51:08;16.80;99.90
74513;DHT22;62992;52.052;8.550;2023-05-07T15:53:53;16.90;99.90
74513;DHT22;62992;52.052;8.550;2023-05-07T15:56:37;16.90;99.90
74513;DHT22;62992;52.052;8.550;2023-05-07T15:59:21;16.90;99.90
74513;DHT22;62992;52.052;8.550;2023-05-07T16:02:06;16.90;99.90
74513;DHT22;62992;52.052;8.550;2023-05-07T16:04:51;16.90;99.90
74513;DHT22;62992;52.052;8.550;2023-05-07T16:07:35;16.90;99.90
74513;DHT22;62992;52.052;8.550;2023-05-07T16:10:20;16.70;99.90
74513;DHT22;62992;52.052;8.550;2023-05-07T16:13:04;16.80;99.90
74513;DHT22;62992;52.052;8.550;2023-05-07T16:15:48;16.80;99.90
74513;DHT22;62992;52.052;8.550;2023-05-07T16:18:32;16.80;99.90
74513;DHT22;62992;52.052;8.550;2023-05-07T16:21:17;16.60;99.90
74513;DHT22;62992;52.052;8.550;2023-05-07T16:24:01;16.70;99.90
74513;DHT22;62992;52.052;8.550;2023-05-07T16:26:45;16.80;99.90
74513;DHT22;62992;52.052;8.550;2023-05-07T16:29:29;16.70;99.90
74513;DHT22;62992;52.052;8.550;2023-05-07T16:32:13;16.70;99.90
74513;DHT22;62992;52.052;8.550;2023-05-07T16:34:58;16.70;99.90
74513;DHT22;62992;52.052;8.550;2023-05-07T16:37:42;16.60;99.90
74513;DHT22;62992;52.052;8.550;2023-05-07T16:40:26;16.60;99.90
74513;DHT22;62992;52.052;8.550;2023-05-07T16:43:10;16.60;99.90
74513;DHT22;62992;52.052;8.550;2023-05-07T16:45:54;16.60;99.90
74513;DHT22;62992;52.052;8.550;2023-05-07T16:48:39;16.50;99.90
74513;DHT22;62992;52.052;8.550;2023-05-07T16:51:23;16.50;99.90
74513;DHT22;62992;52.052;8.550;2023-05-07T16:54:07;16.50;99.90
74513;DHT22;62992;52.052;8.550;2023-05-07T16:56:52;16.50;99.90
74513;DHT22;62992;52.052;8.550;2023-05-07T16:59:36;16.50;99.90
74513;DHT22;62992;52.052;8.550;2023-05-07T17:02:20;16.40;99.90
74513;DHT22;62992;52.052;8.550;2023-05-07T17:05:04;16.40;99.90
74513;DHT22;62992;52.052;8.550;2023-05-07T17:07:51;16.30;99.90
74513;DHT22;62992;52.052;8.550;2023-05-07T17:10:36;16.30;99.90
74513;DHT22;62992;52.052;8.550;2023-05-07T17:13:20;16.30;99.90
74513;DHT22;62992;52.052;8.550;2023-05-07T17:16:04;16.30;99.90
74513;DHT22;62992;52.052;8.550;2023-05-07T17:18:49;16.20;99.90
74513;DHT22;62992;52.052;8.550;2023-05-07T17:21:33;16.20;99.90
74513;DHT22;62992;52.052;8.550;2023-05-07T17:24:17;16.20;99.90
74513;DHT22;62992;52.052;8.550;2023-05-07T17:27:02;16.20;99.90